createdAt,value
2023-02-06T00:01:51.707Z,-1.90
2023-02-06T00:04:19.599Z,-1.91
2023-02-06T00:06:47.133Z,-1.85
2023-02-06T00:09:15.932Z,-1.91
2023-02-06T00:11:43.590Z,-1.90
2023-02-06T00:14:11.508Z,-1.95
2023-02-06T00:16:39.145Z,-1.96
2023-02-06T00:19:06.952Z,-1.89
2023-02-06T00:21:34.751Z,-1.83
2023-02-06T00:24:03.121Z,-1.79
2023-02-06T00:26:31.673Z,-1.78
2023-02-06T00:28:59.685Z,-1.78
2023-02-06T00:31:27.209Z,-1.78
2023-02-06T00:33:55.530Z,-1.76
2023-02-06T00:36:23.493Z,-1.77
2023-02-06T00:38:52.694Z,-1.69
2023-02-06T00:41:21.021Z,-1.68
2023-02-06T00:43:48.870Z,-1.67
2023-02-06T00:46:17.221Z,-1.59
2023-02-06T00:48:45.220Z,-1.70
2023-02-06T00:51:12.954Z,-1.70
2023-02-06T00:53:41.053Z,-1.66
2023-02-06T00:56:08.620Z,-1.72
2023-02-06T00:58:37.019Z,-1.84
2023-02-06T01:01:05.026Z,-2.01
2023-02-06T01:03:32.911Z,-2.07
2023-02-06T01:06:00.551Z,-2.01
2023-02-06T01:08:28.458Z,-2.11
2023-02-06T01:10:55.927Z,-2.25
2023-02-06T01:13:23.807Z,-2.24
2023-02-06T01:15:51.522Z,-2.17
2023-02-06T01:18:19.509Z,-2.10
2023-02-06T01:20:47.040Z,-2.07
2023-02-06T01:23:14.937Z,-2.03
2023-02-06T01:25:43.291Z,-1.97
2023-02-06T01:28:11.343Z,-2.00
2023-02-06T01:30:39.439Z,-1.95
2023-02-06T01:33:07.240Z,-1.99
2023-02-06T01:35:35.125Z,-2.03
2023-02-06T01:38:03.012Z,-2.01
2023-02-06T01:40:30.494Z,-2.02
2023-02-06T01:42:58.718Z,-2.03
2023-02-06T01:45:38.020Z,-2.03
2023-02-06T01:48:13.527Z,-1.96
2023-02-06T01:50:46.074Z,-1.99
2023-02-06T01:53:16.381Z,-2.01
2023-02-06T01:55:47.944Z,-1.98
2023-02-06T01:58:24.321Z,-2.02
2023-02-06T02:00:52.208Z,-2.08
2023-02-06T02:03:20.429Z,-2.06
2023-02-06T02:05:49.987Z,-2.08
2023-02-06T02:08:27.864Z,-2.15
2023-02-06T02:10:55.467Z,-2.10
2023-02-06T02:13:23.388Z,-2.17
2023-02-06T02:16:40.946Z,-2.16
2023-02-06T02:19:51.760Z,-2.10
2023-02-06T02:22:58.246Z,-2.07
2023-02-06T02:26:04.337Z,-2.08
2023-02-06T02:28:56.155Z,-2.07
2023-02-06T02:31:44.980Z,-2.04
2023-02-06T02:34:33.787Z,-1.98
2023-02-06T02:37:31.468Z,-2.05
2023-02-06T02:40:37.638Z,-2.12
2023-02-06T02:43:50.165Z,-2.20
2023-02-06T02:46:43.186Z,-2.21
2023-02-06T02:49:25.205Z,-2.26
2023-02-06T02:51:54.606Z,-2.26
2023-02-06T02:54:22.489Z,-2.30
2023-02-06T02:56:49.952Z,-2.33
2023-02-06T02:59:29.219Z,-2.29
2023-02-06T03:02:12.970Z,-2.32
2023-02-06T03:04:51.191Z,-2.28
2023-02-06T03:07:46.112Z,-2.29
2023-02-06T03:10:23.535Z,-2.41
2023-02-06T03:12:58.292Z,-2.38
2023-02-06T03:16:15.677Z,-2.48
2023-02-06T03:19:05.488Z,-2.47
2023-02-06T03:21:36.777Z,-2.41
2023-02-06T03:24:33.478Z,-2.37
2023-02-06T03:27:08.550Z,-2.38
2023-02-06T03:29:39.167Z,-2.40
2023-02-06T03:32:34.545Z,-2.44
2023-02-06T03:35:22.524Z,-2.49
2023-02-06T03:37:50.980Z,-2.58
2023-02-06T03:40:19.339Z,-2.58
2023-02-06T03:42:56.454Z,-2.58
2023-02-06T03:45:33.917Z,-2.54
2023-02-06T03:48:23.874Z,-2.57
2023-02-06T03:50:54.436Z,-2.52
2023-02-06T03:53:24.666Z,-2.54
2023-02-06T03:55:59.769Z,-2.54
2023-02-06T03:58:27.783Z,-2.52
2023-02-06T04:00:55.550Z,-2.55
2023-02-06T04:03:23.489Z,-2.53
2023-02-06T04:05:51.006Z,-2.50
2023-02-06T04:08:18.873Z,-2.49
2023-02-06T04:10:46.345Z,-2.48
2023-02-06T04:13:14.235Z,-2.51
2023-02-06T04:15:41.848Z,-2.55
2023-02-06T04:18:09.602Z,-2.59
2023-02-06T04:20:41.005Z,-2.60
2023-02-06T04:23:09.445Z,-2.63
2023-02-06T04:25:37.265Z,-2.68
2023-02-06T04:28:05.501Z,-2.66
2023-02-06T04:30:33.153Z,-2.68
2023-02-06T04:33:01.004Z,-2.77
2023-02-06T04:35:28.549Z,-2.82
2023-02-06T04:37:56.636Z,-2.81
2023-02-06T04:40:24.391Z,-2.81
2023-02-06T04:42:52.176Z,-2.78
2023-02-06T04:45:19.717Z,-2.75
2023-02-06T04:47:50.763Z,-2.76
2023-02-06T04:50:18.711Z,-2.68
2023-02-06T04:52:46.687Z,-2.74
2023-02-06T04:55:14.268Z,-2.81
2023-02-06T04:57:42.731Z,-2.79
2023-02-06T05:00:11.239Z,-2.71
2023-02-06T05:02:39.972Z,-2.82
2023-02-06T05:05:09.972Z,-2.83
2023-02-06T05:07:37.943Z,-2.79
2023-02-06T05:10:05.774Z,-2.82
2023-02-06T05:12:33.761Z,-2.82
2023-02-06T05:15:01.128Z,-2.77
2023-02-06T05:17:29.038Z,-2.68
2023-02-06T05:19:58.169Z,-2.68
2023-02-06T05:22:26.314Z,-2.65
2023-02-06T05:24:53.930Z,-2.68
2023-02-06T05:27:22.042Z,-2.70
2023-02-06T05:29:49.470Z,-2.71
2023-02-06T05:32:18.326Z,-2.76
2023-02-06T05:34:46.146Z,-2.82
2023-02-06T05:37:13.955Z,-2.77
2023-02-06T05:39:41.405Z,-2.81
2023-02-06T05:42:09.288Z,-2.87
2023-02-06T05:44:36.872Z,-2.88
2023-02-06T05:47:04.767Z,-2.91
2023-02-06T05:49:32.383Z,-3.02
2023-02-06T05:52:00.119Z,-3.06
2023-02-06T05:54:27.673Z,-3.08
2023-02-06T05:56:57.251Z,-3.06
2023-02-06T05:59:24.914Z,-3.04
2023-02-06T06:01:52.844Z,-3.01
2023-02-06T06:04:20.520Z,-2.98
2023-02-06T06:06:48.467Z,-2.91
2023-02-06T06:09:16.197Z,-2.92
2023-02-06T06:11:44.063Z,-2.93
2023-02-06T06:14:12.350Z,-2.93
2023-02-06T06:16:40.860Z,-2.90
2023-02-06T06:19:08.874Z,-2.85
2023-02-06T06:21:37.107Z,-2.77
2023-02-06T06:24:04.983Z,-2.75
2023-02-06T06:26:32.880Z,-2.72
2023-02-06T06:29:00.449Z,-2.65
2023-02-06T06:31:28.422Z,-2.68
2023-02-06T06:33:55.931Z,-2.70
2023-02-06T06:36:23.987Z,-2.74
2023-02-06T06:38:51.411Z,-2.74
2023-02-06T06:41:19.145Z,-2.76
2023-02-06T06:43:46.645Z,-2.76
2023-02-06T06:46:14.395Z,-2.79
2023-02-06T06:48:41.872Z,-2.75
2023-02-06T06:51:09.894Z,-2.76
2023-02-06T06:53:40.094Z,-2.72
2023-02-06T06:56:11.797Z,-2.64
2023-02-06T06:58:40.638Z,-2.73
2023-02-06T07:01:09.138Z,-2.73
2023-02-06T07:03:36.974Z,-2.75
2023-02-06T07:06:05.904Z,-2.75
2023-02-06T07:08:33.422Z,-2.69
2023-02-06T07:11:01.367Z,-2.59
2023-02-06T07:13:28.797Z,-2.56
2023-02-06T07:15:56.681Z,-2.72
2023-02-06T07:18:24.164Z,-2.76
2023-02-06T07:20:52.037Z,-2.78
2023-02-06T07:23:19.597Z,-2.70
2023-02-06T07:25:47.574Z,-2.61
2023-02-06T07:28:15.287Z,-2.60
2023-02-06T07:30:43.265Z,-2.54
2023-02-06T07:33:10.923Z,-2.52
2023-02-06T07:35:38.879Z,-2.41
2023-02-06T07:38:06.524Z,-2.30
2023-02-06T07:40:44.756Z,-2.37
2023-02-06T07:43:13.950Z,-2.40
2023-02-06T07:45:42.436Z,-2.34
2023-02-06T07:48:10.434Z,-2.28
2023-02-06T07:50:38.711Z,-2.23
2023-02-06T07:53:07.945Z,-2.21
2023-02-06T07:55:37.819Z,-2.27
2023-02-06T07:58:05.573Z,-2.38
2023-02-06T08:00:33.715Z,-2.55
2023-02-06T08:03:01.290Z,-2.55
2023-02-06T08:05:31.233Z,-2.51
2023-02-06T08:07:58.880Z,-2.47
2023-02-06T08:10:27.595Z,-2.41
2023-02-06T08:12:55.098Z,-2.50
2023-02-06T08:15:23.018Z,-2.39
2023-02-06T08:17:50.520Z,-2.30
2023-02-06T08:20:18.529Z,-2.29
2023-02-06T08:22:46.754Z,-2.20
2023-02-06T08:25:14.799Z,-2.09
2023-02-06T08:27:42.367Z,-1.95
2023-02-06T08:30:11.166Z,-1.79
2023-02-06T08:32:39.295Z,-1.68
2023-02-06T08:35:07.305Z,-1.62
2023-02-06T08:37:34.999Z,-1.60
2023-02-06T08:40:03.731Z,-1.54
2023-02-06T08:42:31.324Z,-1.51
2023-02-06T08:44:59.284Z,-1.47
2023-02-06T08:47:26.800Z,-1.49
2023-02-06T08:49:55.759Z,-1.45
2023-02-06T08:52:23.494Z,-1.41
2023-02-06T08:54:52.953Z,-1.37
2023-02-06T08:57:20.623Z,-1.36
2023-02-06T08:59:49.769Z,-1.53
2023-02-06T09:02:17.538Z,-1.58
2023-02-06T09:04:45.919Z,-1.55
2023-02-06T09:07:15.186Z,-1.45
2023-02-06T09:09:45.334Z,-1.33
2023-02-06T09:12:13.085Z,-1.25
2023-02-06T09:14:40.894Z,-1.13
2023-02-06T09:17:08.781Z,-1.04
2023-02-06T09:19:36.632Z,-0.93
2023-02-06T09:22:06.318Z,-0.78
2023-02-06T09:24:35.249Z,-0.70
2023-02-06T09:27:03.009Z,-0.64
2023-02-06T09:29:32.076Z,-0.51
2023-02-06T09:32:00.430Z,-0.43
2023-02-06T09:34:29.000Z,-0.46
2023-02-06T09:36:57.880Z,-0.45
2023-02-06T09:39:26.356Z,-0.36
2023-02-06T09:42:07.814Z,-0.27
2023-02-06T09:44:56.303Z,-0.21
2023-02-06T09:47:35.704Z,-0.11
2023-02-06T09:50:30.829Z,-0.12
2023-02-06T09:53:22.994Z,-0.07
2023-02-06T09:56:30.772Z,-0.10
2023-02-06T09:59:31.997Z,-0.06
2023-02-06T10:02:20.983Z,-0.01
2023-02-06T10:05:19.028Z,-0.05
2023-02-06T10:08:11.907Z,0.10
2023-02-06T10:10:59.674Z,0.25
2023-02-06T10:14:02.432Z,0.11
2023-02-06T10:16:39.578Z,0.09
2023-02-06T10:19:30.846Z,0.10
2023-02-06T10:22:30.921Z,0.17
2023-02-06T10:25:18.733Z,-0.04
2023-02-06T10:27:54.831Z,-0.26
2023-02-06T10:30:46.391Z,-0.12
2023-02-06T10:33:47.270Z,-0.12
2023-02-06T10:36:46.052Z,-0.02
2023-02-06T10:39:52.813Z,0.08
2023-02-06T10:43:03.849Z,0.01
2023-02-06T10:45:39.256Z,-0.14
2023-02-06T10:48:09.790Z,-0.09
2023-02-06T10:50:58.703Z,0.10
2023-02-06T10:53:36.672Z,0.14
2023-02-06T10:56:13.133Z,0.31
2023-02-06T10:58:48.968Z,0.50
2023-02-06T11:01:26.077Z,0.62
2023-02-06T11:04:17.711Z,0.63
2023-02-06T11:06:46.909Z,0.41
2023-02-06T11:09:16.156Z,0.42
2023-02-06T11:11:51.399Z,0.50
2023-02-06T11:14:35.501Z,0.66
2023-02-06T11:17:03.202Z,0.82
2023-02-06T11:19:42.325Z,1.06
2023-02-06T11:22:25.961Z,1.24
2023-02-06T11:25:07.609Z,0.97
2023-02-06T11:27:36.566Z,0.80
2023-02-06T11:30:30.017Z,0.97
2023-02-06T11:33:04.573Z,1.14
2023-02-06T11:35:40.288Z,1.30
2023-02-06T11:38:19.806Z,1.45
2023-02-06T11:41:02.480Z,1.55
2023-02-06T11:43:42.074Z,1.61
2023-02-06T11:46:20.606Z,1.67
2023-02-06T11:48:58.592Z,1.68
2023-02-06T11:51:47.640Z,1.70
2023-02-06T11:54:35.191Z,1.65
2023-02-06T11:57:08.080Z,1.59
2023-02-06T11:59:37.535Z,1.58
2023-02-06T12:02:30.967Z,1.75
2023-02-06T12:05:15.657Z,1.92
2023-02-06T12:08:16.449Z,2.16
2023-02-06T12:10:59.949Z,2.38
2023-02-06T12:13:45.043Z,2.44
2023-02-06T12:16:15.383Z,2.48
2023-02-06T12:18:49.755Z,2.51
2023-02-06T12:21:30.121Z,2.43
2023-02-06T12:24:05.872Z,2.34
2023-02-06T12:26:38.132Z,2.36
2023-02-06T12:29:18.296Z,2.54
2023-02-06T12:32:18.384Z,2.42
2023-02-06T12:35:25.193Z,2.41
2023-02-06T12:38:08.074Z,2.55
2023-02-06T12:40:56.620Z,2.61
2023-02-06T12:43:24.278Z,2.77
2023-02-06T12:46:09.109Z,2.98
2023-02-06T12:48:56.372Z,3.24
2023-02-06T12:51:37.638Z,3.14
2023-02-06T12:54:31.440Z,3.19
2023-02-06T12:57:13.503Z,3.16
2023-02-06T13:00:19.113Z,2.96
2023-02-06T13:03:28.799Z,3.15
2023-02-06T13:06:02.716Z,3.36
2023-02-06T13:08:58.643Z,3.69
2023-02-06T13:11:35.841Z,3.86
2023-02-06T13:14:27.731Z,4.23
2023-02-06T13:17:11.889Z,4.29
2023-02-06T13:19:39.555Z,4.23
2023-02-06T13:22:09.833Z,4.09
2023-02-06T13:24:40.566Z,3.91
2023-02-06T13:27:07.861Z,3.63
2023-02-06T13:29:48.352Z,3.40
2023-02-06T13:32:15.724Z,3.26
2023-02-06T13:34:44.485Z,3.08
2023-02-06T13:37:33.298Z,2.96
2023-02-06T13:40:23.299Z,2.86
2023-02-06T13:43:26.255Z,2.85
2023-02-06T13:46:11.005Z,2.73
2023-02-06T13:49:30.011Z,2.75
2023-02-06T13:52:22.888Z,2.59
2023-02-06T13:55:13.045Z,2.50
2023-02-06T13:58:12.452Z,2.52
2023-02-06T14:00:43.851Z,2.58
2023-02-06T14:03:31.700Z,2.62
2023-02-06T14:06:11.049Z,2.75
2023-02-06T14:09:15.359Z,2.87
2023-02-06T14:12:28.466Z,2.86
2023-02-06T14:15:46.132Z,2.84
2023-02-06T14:18:47.526Z,2.69
2023-02-06T14:21:45.728Z,2.57
2023-02-06T14:24:34.393Z,2.73
2023-02-06T14:27:23.563Z,2.83
2023-02-06T14:30:45.283Z,3.00
2023-02-06T14:34:11.746Z,3.11
2023-02-06T14:36:56.524Z,2.93
2023-02-06T14:39:52.027Z,2.94
2023-02-06T14:42:43.184Z,3.03
2023-02-06T14:45:42.449Z,3.06
2023-02-06T14:48:52.080Z,3.02
2023-02-06T14:51:34.133Z,3.23
2023-02-06T14:54:06.619Z,3.64
2023-02-06T14:56:39.135Z,3.74
2023-02-06T14:59:19.015Z,3.71
2023-02-06T15:01:51.189Z,3.49
2023-02-06T15:04:28.511Z,3.18
2023-02-06T15:07:00.246Z,2.93
2023-02-06T15:09:44.000Z,2.77
2023-02-06T15:12:26.680Z,2.65
2023-02-06T15:15:15.584Z,2.53
2023-02-06T15:17:43.967Z,2.47
2023-02-06T15:20:41.854Z,2.33
2023-02-06T15:23:58.181Z,2.26
2023-02-06T15:27:04.031Z,2.18
2023-02-06T15:29:31.891Z,2.09
2023-02-06T15:32:18.013Z,1.94
2023-02-06T15:34:46.992Z,1.87
2023-02-06T15:37:34.728Z,1.86
2023-02-06T15:40:33.794Z,1.87
2023-02-06T15:43:03.086Z,1.90
2023-02-06T15:45:37.611Z,1.89
2023-02-06T15:48:21.658Z,1.78
2023-02-06T15:51:29.569Z,1.73
2023-02-06T15:54:29.600Z,1.72
2023-02-06T15:57:19.374Z,1.72
2023-02-06T15:59:47.545Z,1.73
2023-02-06T16:02:35.619Z,1.75
2023-02-06T16:05:04.935Z,1.84
2023-02-06T16:07:35.967Z,1.86
2023-02-06T16:10:25.448Z,1.82
2023-02-06T16:12:55.289Z,1.81
2023-02-06T16:15:35.129Z,1.73
2023-02-06T16:18:23.829Z,1.66
2023-02-06T16:20:51.622Z,1.59
2023-02-06T16:23:20.823Z,1.55
2023-02-06T16:26:14.436Z,1.52
2023-02-06T16:29:03.375Z,1.48
2023-02-06T16:31:34.792Z,1.43
2023-02-06T16:34:18.593Z,1.45
2023-02-06T16:36:46.140Z,1.43
2023-02-06T16:39:13.844Z,1.48
2023-02-06T16:41:41.454Z,1.53
2023-02-06T16:44:15.654Z,1.49
2023-02-06T16:46:43.751Z,1.49
2023-02-06T16:49:15.775Z,1.45
2023-02-06T16:51:45.256Z,1.47
2023-02-06T16:54:24.977Z,1.47
2023-02-06T16:56:54.597Z,1.46
2023-02-06T16:59:23.175Z,1.44
2023-02-06T17:01:50.991Z,1.38
2023-02-06T17:04:18.912Z,1.38
2023-02-06T17:06:47.360Z,1.36
2023-02-06T17:09:18.149Z,1.26
2023-02-06T17:11:45.966Z,1.24
2023-02-06T17:14:14.642Z,1.22
2023-02-06T17:16:42.308Z,1.19
2023-02-06T17:19:15.045Z,1.12
2023-02-06T17:21:42.858Z,1.07
2023-02-06T17:24:10.717Z,1.06
2023-02-06T17:26:38.332Z,1.04
2023-02-06T17:29:06.237Z,1.03
2023-02-06T17:31:33.809Z,1.05
2023-02-06T17:34:01.665Z,1.04
2023-02-06T17:36:33.364Z,1.05
2023-02-06T17:39:02.069Z,1.06
2023-02-06T17:41:31.320Z,1.06
2023-02-06T17:43:59.326Z,1.07
2023-02-06T17:46:26.937Z,0.99
2023-02-06T17:48:54.728Z,0.94
2023-02-06T17:51:22.282Z,0.96
2023-02-06T17:53:51.842Z,0.96
2023-02-06T17:56:20.537Z,0.97
2023-02-06T17:58:48.580Z,0.98
2023-02-06T18:01:23.014Z,1.00
2023-02-06T18:03:51.575Z,0.99
2023-02-06T18:06:20.441Z,1.01
2023-02-06T18:08:48.992Z,1.00
2023-02-06T18:11:21.353Z,0.96
2023-02-06T18:13:50.159Z,0.94
2023-02-06T18:16:24.317Z,1.09
2023-02-06T18:18:52.327Z,1.15
2023-02-06T18:21:21.632Z,1.13
2023-02-06T18:23:49.559Z,1.09
2023-02-06T18:26:17.617Z,1.04
2023-02-06T18:28:45.492Z,0.98
2023-02-06T18:31:34.907Z,0.88
2023-02-06T18:34:07.851Z,0.83
2023-02-06T18:36:37.773Z,0.82
2023-02-06T18:39:06.775Z,0.80
2023-02-06T18:41:53.143Z,0.82
2023-02-06T18:44:21.250Z,0.82
2023-02-06T18:46:48.723Z,0.83
2023-02-06T18:49:17.484Z,0.79
2023-02-06T18:51:45.241Z,0.79
2023-02-06T18:54:13.162Z,0.74
2023-02-06T18:56:40.848Z,0.71
2023-02-06T18:59:08.889Z,0.71
2023-02-06T19:01:36.399Z,0.76
2023-02-06T19:04:04.689Z,0.69
2023-02-06T19:06:35.627Z,0.65
2023-02-06T19:09:09.265Z,0.58
2023-02-06T19:11:38.015Z,0.54
2023-02-06T19:14:09.172Z,0.51
2023-02-06T19:16:40.980Z,0.57
2023-02-06T19:19:09.624Z,0.55
2023-02-06T19:21:38.340Z,0.54
2023-02-06T19:24:07.335Z,0.47
2023-02-06T19:26:36.217Z,0.46
2023-02-06T19:29:05.134Z,0.45
2023-02-06T19:31:32.841Z,0.47
2023-02-06T19:34:02.315Z,0.46
2023-02-06T19:36:31.044Z,0.42
2023-02-06T19:39:02.963Z,0.33
2023-02-06T19:41:33.691Z,0.33
2023-02-06T19:44:09.828Z,0.36
2023-02-06T19:46:39.519Z,0.40
2023-02-06T19:49:08.824Z,0.31
2023-02-06T19:51:41.569Z,0.23
2023-02-06T19:54:09.847Z,0.18
2023-02-06T19:56:43.598Z,0.15
2023-02-06T19:59:19.555Z,0.14
2023-02-06T20:01:51.978Z,0.13
2023-02-06T20:04:25.929Z,0.10
2023-02-06T20:06:55.846Z,0.11
2023-02-06T20:09:24.837Z,0.12
2023-02-06T20:11:52.568Z,0.06
2023-02-06T20:14:21.949Z,0.04
2023-02-06T20:16:50.133Z,0.05
2023-02-06T20:19:27.116Z,0.06
2023-02-06T20:22:47.873Z,0.06
2023-02-06T20:25:16.636Z,0.01
2023-02-06T20:27:44.502Z,-0.06
2023-02-06T20:30:13.308Z,-0.06
2023-02-06T20:33:02.722Z,-0.06
2023-02-06T20:35:33.179Z,-0.05
2023-02-06T20:38:00.700Z,-0.04
2023-02-06T20:40:28.665Z,-0.10
2023-02-06T20:42:56.088Z,-0.16
2023-02-06T20:45:24.077Z,-0.26
2023-02-06T20:47:51.454Z,-0.31
2023-02-06T20:50:19.697Z,-0.38
2023-02-06T20:52:47.196Z,-0.40
2023-02-06T20:55:14.936Z,-0.38
2023-02-06T20:58:08.213Z,-0.34
2023-02-06T21:00:36.359Z,-0.37
2023-02-06T21:03:05.022Z,-0.36
2023-02-06T21:05:33.025Z,-0.32
2023-02-06T21:08:00.550Z,-0.28
2023-02-06T21:10:28.402Z,-0.26
2023-02-06T21:12:55.822Z,-0.24
2023-02-06T21:15:23.908Z,-0.23
2023-02-06T21:17:51.429Z,-0.15
2023-02-06T21:20:20.632Z,-0.09
2023-02-06T21:22:53.116Z,-0.08
2023-02-06T21:25:21.718Z,-0.03
2023-02-06T21:27:51.124Z,-0.03
2023-02-06T21:30:19.567Z,-0.02
2023-02-06T21:32:48.120Z,-0.05
2023-02-06T21:35:17.272Z,-0.05
2023-02-06T21:37:45.943Z,-0.07
2023-02-06T21:40:15.625Z,-0.09
2023-02-06T21:42:43.944Z,-0.07
2023-02-06T21:45:11.833Z,-0.07
2023-02-06T21:47:41.213Z,-0.19
2023-02-06T21:50:09.524Z,-0.28
2023-02-06T21:52:38.093Z,-0.28
2023-02-06T21:55:07.662Z,-0.26
2023-02-06T21:57:35.340Z,-0.25
2023-02-06T22:00:04.872Z,-0.25
2023-02-06T22:02:40.042Z,-0.24
2023-02-06T22:05:08.344Z,-0.25
2023-02-06T22:07:37.561Z,-0.25
2023-02-06T22:10:06.119Z,-0.24
2023-02-06T22:12:34.483Z,-0.27
2023-02-06T22:15:02.524Z,-0.29
2023-02-06T22:17:30.455Z,-0.29
2023-02-06T22:19:58.419Z,-0.29
2023-02-06T22:22:25.926Z,-0.25
2023-02-06T22:24:53.785Z,-0.28
2023-02-06T22:27:21.456Z,-0.30
2023-02-06T22:29:49.368Z,-0.30
2023-02-06T22:32:17.102Z,-0.30
2023-02-06T22:34:45.056Z,-0.31
2023-02-06T22:37:12.647Z,-0.30
2023-02-06T22:39:40.467Z,-0.32
2023-02-06T22:42:08.198Z,-0.36
2023-02-06T22:44:36.475Z,-0.36
2023-02-06T22:47:04.091Z,-0.40
2023-02-06T22:49:32.490Z,-0.47
2023-02-06T22:52:00.277Z,-0.49
2023-02-06T22:54:28.201Z,-0.50
2023-02-06T22:56:55.789Z,-0.50
2023-02-06T22:59:25.778Z,-0.52
2023-02-06T23:02:00.707Z,-0.52
2023-02-06T23:04:34.763Z,-0.55
2023-02-06T23:07:03.145Z,-0.56
2023-02-06T23:09:35.213Z,-0.58
2023-02-06T23:12:04.344Z,-0.58
2023-02-06T23:14:33.530Z,-0.63
2023-02-06T23:17:03.635Z,-0.69
2023-02-06T23:19:31.951Z,-0.68
2023-02-06T23:21:59.586Z,-0.70
2023-02-06T23:24:27.801Z,-0.67
2023-02-06T23:26:55.482Z,-0.66
2023-02-06T23:29:24.316Z,-0.64
2023-02-06T23:31:52.830Z,-0.69
2023-02-06T23:34:23.819Z,-0.69
2023-02-06T23:36:53.097Z,-0.72
2023-02-06T23:39:21.355Z,-0.72
2023-02-06T23:41:48.851Z,-0.69
2023-02-06T23:44:17.291Z,-0.70
2023-02-06T23:46:44.900Z,-0.83
2023-02-06T23:49:12.845Z,-0.93
2023-02-06T23:51:40.328Z,-0.99
2023-02-06T23:54:09.168Z,-1.06
2023-02-06T23:56:37.542Z,-1.22
2023-02-06T23:59:06.650Z,-1.34
